Time;durP1;ratioP1;P1;durP2;ratioP2;P2;SDS_P1;SDS_P2;PMS_P1;PMS_P2;Temp;Humidity;BMP_temperature;BMP_pressure;BME280_temperature;BME280_humidity;BME280_pressure;Samples;Min_cycle;Max_cycle;Signal;HPM_P1;HPM_P2
2022/03/30 00:01:10;;;;;;;;;50.00;41.00;;;;;30.31;24.55;99842.59;5071070;28;45419;-87
2022/03/30 00:03:35;;;;;;;;;48.00;40.33;;;;;30.28;24.73;99835.50;5074941;28;45427;-87
2022/03/30 00:06:01;;;;;;;;;54.67;42.67;;;;;31.15;25.02;99990.31;5062225;28;45443;-87
2022/03/30 00:08:27;;;;;;;;;54.00;44.00;;;;;30.28;24.89;99877.44;5058369;28;46101;-87
2022/03/30 00:10:52;;;;;;;;;53.33;44.00;;;;;29.71;25.39;99760.59;5056681;28;45961;-87
2022/03/30 00:13:18;;;;;;;;;56.75;46.00;;;;;30.20;25.32;99857.13;5057044;28;45407;-87
2022/03/30 00:15:44;;;;;;;;;56.33;45.67;;;;;30.69;25.19;99927.22;5058568;28;45614;-89
2022/03/30 00:18:10;;;;;;;;;51.67;42.00;;;;;30.74;24.78;99933.19;5058328;28;46418;-90
2022/03/30 00:20:35;;;;;;;;;56.00;45.33;;;;;30.15;24.79;99819.16;5073607;28;45627;-89
2022/03/30 00:23:00;;;;;;;;;53.33;44.00;;;;;30.03;24.64;99804.59;5056787;28;45497;-89
2022/03/30 00:25:26;;;;;;;;;53.00;45.00;;;;;30.69;24.85;99894.38;5058535;28;45561;-88
2022/03/30 00:27:51;;;;;;;;;59.75;47.00;;;;;30.70;24.43;99895.22;5057871;28;46023;-89
2022/03/30 00:30:19;;;;;;;;;48.75;40.25;;;;;30.96;24.90;99958.88;5073880;28;45319;-89
2022/03/30 00:32:45;;;;;;;;;58.00;45.75;;;;;30.91;24.63;99953.75;5056385;28;45627;-89
2022/03/30 00:35:12;;;;;;;;;54.00;43.00;;;;;30.08;24.95;99821.53;5056649;28;45525;-89
2022/03/30 00:37:38;;;;;;;;;52.50;44.50;;;;;30.47;24.86;99889.69;5060854;27;48302;-89
2022/03/30 00:40:06;;;;;;;;;55.67;44.67;;;;;31.13;24.91;99985.84;5077527;28;45371;-89
2022/03/30 00:42:31;;;;;;;;;59.00;46.00;;;;;30.60;25.16;99945.25;5056737;28;45389;-89
2022/03/30 00:44:57;;;;;;;;;55.00;43.75;;;;;30.68;25.35;99958.31;5056486;28;45553;-89
2022/03/30 00:47:25;;;;;;;;;53.00;41.25;;;;;29.70;25.34;99814.38;5057822;28;46179;-88
2022/03/30 00:49:51;;;;;;;;;55.67;43.67;;;;;29.90;25.48;99853.00;5057374;28;45443;-88
2022/03/30 00:52:17;;;;;;;;;57.67;45.67;;;;;30.11;25.76;99872.38;5056304;28;45610;-88
2022/03/30 00:54:45;;;;;;;;;56.00;42.75;;;;;29.67;25.40;99781.81;5056196;28;45453;-88
2022/03/30 00:57:13;;;;;;;;;53.50;44.00;;;;;29.58;25.08;99736.06;5055918;28;46972;-88
2022/03/30 00:59:40;;;;;;;;;53.00;42.25;;;;;30.19;25.21;99837.09;5055142;28;45951;-87
2022/03/30 01:02:05;;;;;;;;;58.50;46.50;;;;;29.69;25.06;99744.31;5056007;28;45352;-87
2022/03/30 01:04:31;;;;;;;;;56.50;45.75;;;;;29.89;25.13;99764.66;5057001;28;45468;-88
2022/03/30 01:06:57;;;;;;;;;50.50;41.75;;;;;30.55;25.00;99889.09;5056936;28;46115;-88
2022/03/30 01:09:23;;;;;;;;;57.50;45.75;;;;;30.07;25.52;99794.28;5057203;28;45642;-88
2022/03/30 01:11:50;;;;;;;;;58.50;48.00;;;;;30.34;25.19;99835.03;5056518;28;45530;-89
2022/03/30 01:14:16;;;;;;;;;59.00;46.00;;;;;29.78;25.64;99762.72;5057050;28;45281;-88
2022/03/30 01:16:41;;;;;;;;;56.25;45.50;;;;;30.03;25.26;99821.00;5059803;28;47456;-88
2022/03/30 01:19:09;;;;;;;;;58.75;46.75;;;;;29.86;25.60;99753.06;5059756;28;45258;-88
2022/03/30 01:21:40;;;;;;;;;56.50;45.75;;;;;30.58;25.13;99864.22;5056153;28;45466;-88
2022/03/30 01:24:08;;;;;;;;;56.50;47.00;;;;;31.05;25.28;99916.22;5055455;28;45639;-88
2022/03/30 01:26:34;;;;;;;;;56.50;46.50;;;;;31.09;24.91;99918.56;5055621;28;47155;-89
2022/03/30 01:29:00;;;;;;;;;59.00;47.25;;;;;30.32;25.00;99792.34;5056464;28;45444;-88
2022/03/30 01:34:09;;;;;;;;;57.25;45.50;;;;;30.78;24.91;99848.94;5056444;28;45351;-84
2022/03/30 01:36:38;;;;;;;;;63.75;48.50;;;;;30.16;24.76;99716.13;5056209;28;45554;-84
2022/03/30 01:39:05;;;;;;;;;64.50;49.50;;;;;30.28;24.79;99756.16;5056144;28;45475;-84
2022/03/30 01:41:31;;;;;;;;;58.00;46.50;;;;;30.93;24.76;99863.28;5056428;28;45390;-83
2022/03/30 01:43:57;;;;;;;;;61.25;46.50;;;;;30.77;24.90;99842.59;5056478;28;45542;-83
2022/03/30 01:46:23;;;;;;;;;60.25;48.50;;;;;30.06;24.67;99715.97;5056168;28;45920;-84
2022/03/30 01:48:48;;;;;;;;;59.00;46.75;;;;;31.06;24.65;99869.53;5055961;28;45386;-85
2022/03/30 01:51:14;;;;;;;;;61.00;49.50;;;;;30.13;24.63;99716.34;5056549;28;45366;-84
2022/03/30 01:53:40;;;;;;;;;56.75;46.50;;;;;30.27;25.20;99736.13;5055047;28;45461;-84
2022/03/30 01:56:05;;;;;;;;;57.25;46.00;;;;;31.20;25.20;99889.47;5055839;28;46209;-84
2022/03/30 01:58:31;;;;;;;;;63.75;48.50;;;;;30.26;25.21;99719.84;5054933;28;45591;-83
2022/03/30 02:00:57;;;;;;;;;61.00;48.00;;;;;30.94;24.98;99862.25;5055744;28;45523;-83
2022/03/30 02:03:49;;;;;;;;;57.00;46.25;;;;;31.22;25.10;99881.97;5056035;28;45515;-84
2022/03/30 02:06:15;;;;;;;;;58.00;46.50;;;;;30.54;25.07;99805.25;5055885;28;45384;-84
2022/03/30 02:08:41;;;;;;;;;64.25;47.50;;;;;30.51;25.80;99783.59;5055959;28;45556;-86
2022/03/30 02:11:07;;;;;;;;;60.50;48.50;;;;;30.98;24.88;99824.56;5053645;28;45508;-83
2022/03/30 02:13:32;;;;;;;;;55.75;45.50;;;;;31.02;24.23;99832.41;5055718;28;45502;-84
2022/03/30 02:15:58;;;;;;;;;62.00;49.00;;;;;30.37;24.89;99780.06;5055670;28;45429;-82
2022/03/30 02:18:24;;;;;;;;;58.75;46.75;;;;;29.86;25.66;99794.09;5071569;28;45609;-84
2022/03/30 02:20:50;;;;;;;;;56.50;46.00;;;;;29.61;25.10;99727.63;5055949;28;45496;-86
2022/03/30 02:23:15;;;;;;;;;55.75;46.00;;;;;30.21;25.06;99785.88;5055695;28;45576;-85
2022/03/30 02:25:40;;;;;;;;;59.00;47.00;;;;;30.83;24.99;99867.72;5055646;28;46164;-84
2022/03/30 02:28:06;;;;;;;;;59.25;47.00;;;;;30.77;24.77;99852.66;5055707;28;45296;-85
2022/03/30 02:30:31;;;;;;;;;60.50;49.00;;;;;29.74;24.99;99657.31;5056067;28;45449;-87
2022/03/30 02:32:57;;;;;;;;;54.75;45.50;;;;;30.83;24.67;99829.38;5055931;28;45371;-89
2022/03/30 02:35:23;;;;;;;;;57.25;47.00;;;;;30.36;24.83;99756.41;5055095;28;47059;-86
2022/03/30 02:37:49;;;;;;;;;59.00;46.75;;;;;29.90;25.06;99676.16;5055578;28;45315;-86
2022/03/30 02:40:14;;;;;;;;;54.25;45.75;;;;;30.07;25.04;99718.59;5071485;28;45377;-86
2022/03/30 02:42:40;;;;;;;;;57.75;46.00;;;;;29.84;24.98;99686.72;5055638;28;45519;-88
2022/03/30 02:45:06;;;;;;;;;60.00;48.00;;;;;29.76;24.85;99677.22;5054590;28;47043;-86
2022/03/30 02:50:15;;;;;;;;;57.25;47.00;;;;;30.81;24.51;99847.81;5079297;28;44730;-84
2022/03/30 02:52:41;;;;;;;;;59.75;49.75;;;;;30.52;24.92;99807.22;5058548;28;45451;-86
2022/03/30 02:55:06;;;;;;;;;59.50;47.25;;;;;30.42;25.32;99809.78;5056360;28;45403;-87
2022/03/30 02:57:32;;;;;;;;;61.00;46.75;;;;;29.70;25.50;99720.56;5054075;28;45518;-86
2022/03/30 02:59:57;;;;;;;;;56.75;46.75;;;;;30.49;25.48;99841.16;5055292;28;45392;-83
2022/03/30 03:02:22;;;;;;;;;59.50;47.50;;;;;29.51;25.17;99644.63;5055398;28;45558;-83
2022/03/30 03:04:48;;;;;;;;;60.00;48.00;;;;;29.96;24.93;99724.03;5055168;28;46192;-84
2022/03/30 03:07:14;;;;;;;;;61.25;49.50;;;;;30.59;25.29;99836.72;5054882;28;45605;-84
2022/03/30 03:09:40;;;;;;;;;60.25;49.00;;;;;29.78;24.81;99694.34;5055476;28;45338;-83
2022/03/30 03:12:05;;;;;;;;;60.50;48.75;;;;;29.84;25.30;99697.66;5054781;28;45356;-81
2022/03/30 03:14:31;;;;;;;;;59.50;47.00;;;;;29.87;24.78;99702.88;5054645;28;46214;-81
2022/03/30 03:16:56;;;;;;;;;61.00;48.00;;;;;30.73;24.90;99853.91;5054880;28;45367;-81
2022/03/30 03:19:21;;;;;;;;;61.25;48.50;;;;;30.01;24.96;99723.66;5055029;28;45333;-82
2022/03/30 03:21:47;;;;;;;;;54.00;45.50;;;;;29.96;24.76;99723.13;5054757;28;51939;-81
2022/03/30 03:24:12;;;;;;;;;67.00;51.25;;;;;29.20;25.76;99668.81;5056854;28;46249;-81
2022/03/30 03:26:37;;;;;;;;;64.25;49.50;;;;;29.05;25.55;99649.84;5058264;28;45433;-81
2022/03/30 03:29:03;;;;;;;;;58.00;47.00;;;;;29.89;25.48;99753.72;5058081;28;45283;-81
2022/03/30 03:31:28;;;;;;;;;55.50;46.75;;;;;29.70;25.51;99693.22;5058454;28;45448;-81
2022/03/30 03:33:53;;;;;;;;;60.50;48.50;;;;;29.60;25.12;99668.47;5058136;28;46267;-81
2022/03/30 03:36:19;;;;;;;;;61.75;48.25;;;;;29.97;25.04;99730.34;5058412;28;45356;-81
2022/03/30 03:38:45;;;;;;;;;60.75;47.25;;;;;28.94;25.14;99548.78;5058364;28;45399;-81
2022/03/30 03:41:11;;;;;;;;;58.50;47.00;;;;;29.52;25.39;99655.41;5057950;28;45458;-81
2022/03/30 03:43:37;;;;;;;;;61.75;49.00;;;;;29.84;24.73;99676.63;5057752;28;46037;-81
2022/03/30 03:46:03;;;;;;;;;60.50;47.75;;;;;29.80;24.82;99660.56;5057826;28;45515;-82
2022/03/30 03:48:28;;;;;;;;;64.75;49.00;;;;;29.95;24.67;99664.84;5058192;28;45392;-81
2022/03/30 03:50:54;;;;;;;;;63.50;49.50;;;;;30.35;25.04;99730.06;5058143;28;45399;-81
2022/03/30 03:53:19;;;;;;;;;57.25;45.25;;;;;30.50;24.95;99774.50;5057718;28;46198;-81
2022/03/30 03:55:44;;;;;;;;;56.25;46.75;;;;;30.56;24.97;99793.19;5058433;28;45520;-81
2022/03/30 03:58:11;;;;;;;;;54.00;44.75;;;;;29.66;25.13;99637.94;5056310;28;45384;-81
2022/03/30 04:00:36;;;;;;;;;62.50;49.00;;;;;29.52;24.94;99608.06;5058101;28;45321;-81
2022/03/30 04:03:02;;;;;;;;;61.00;47.25;;;;;30.55;25.13;99771.38;5056466;28;46266;-82
2022/03/30 04:05:27;;;;;;;;;59.50;48.50;;;;;30.34;25.32;99736.53;5057634;28;45446;-81
2022/03/30 04:07:52;;;;;;;;;61.75;47.25;;;;;30.05;25.19;99703.28;5056625;28;45198;-82
2022/03/30 04:10:18;;;;;;;;;61.75;48.00;;;;;30.49;24.99;99772.75;5057520;28;45452;-82
2022/03/30 04:12:43;;;;;;;;;62.00;49.75;;;;;30.49;25.35;99777.34;5057371;28;46291;-81
2022/03/30 04:15:09;;;;;;;;;60.00;47.25;;;;;30.25;24.74;99704.41;5056422;28;45392;-82
2022/03/30 04:17:34;;;;;;;;;53.00;42.75;;;;;30.56;25.17;99737.56;5057847;28;45291;-82
2022/03/30 04:20:00;;;;;;;;;61.50;49.50;;;;;30.67;25.20;99796.91;5057536;28;45475;-81
2022/03/30 04:22:26;;;;;;;;;61.25;49.25;;;;;29.63;25.60;99649.09;5057122;28;45397;-81
2022/03/30 04:24:51;;;;;;;;;63.75;48.75;;;;;30.30;25.85;99792.47;5057332;28;45375;-81
2022/03/30 04:27:17;;;;;;;;;63.75;49.75;;;;;30.42;25.68;99805.19;5057157;28;45289;-81
2022/03/30 04:29:42;;;;;;;;;60.75;49.00;;;;;30.28;25.30;99745.19;5057683;28;45377;-81
2022/03/30 04:32:08;;;;;;;;;62.75;50.25;;;;;30.66;25.11;99793.31;5057016;28;46248;-81
2022/03/30 04:34:33;;;;;;;;;58.75;47.75;;;;;29.98;25.55;99694.69;5056314;28;45438;-81
2022/03/30 04:36:59;;;;;;;;;63.00;50.00;;;;;30.51;25.30;99781.72;5057508;28;45398;-81
2022/03/30 04:39:24;;;;;;;;;60.50;50.00;;;;;29.66;25.67;99632.47;5056977;28;45458;-81
2022/03/30 04:41:49;;;;;;;;;65.25;52.00;;;;;29.98;25.76;99724.78;5056886;28;45450;-81
2022/03/30 04:44:15;;;;;;;;;66.25;54.00;;;;;29.92;26.19;99769.88;5056878;28;45336;-81
2022/03/30 04:46:40;;;;;;;;;65.75;51.00;;;;;28.73;26.72;99623.13;5057055;28;45360;-81
2022/03/30 04:49:05;;;;;;;;;62.00;51.00;;;;;28.83;26.43;99581.47;5057186;28;45589;-81
2022/03/30 04:51:31;;;;;;;;;65.00;52.75;;;;;30.17;25.90;99758.88;5056695;28;45479;-81
2022/03/30 04:53:57;;;;;;;;;63.00;50.50;;;;;29.93;26.05;99727.00;5057061;28;45300;-81
2022/03/30 04:56:22;;;;;;;;;64.75;50.00;;;;;29.70;26.52;99726.03;5056698;28;45525;-81
2022/03/30 04:58:49;;;;;;;;;64.00;51.25;;;;;29.16;26.09;99599.88;5057080;28;45275;-81
2022/03/30 05:01:15;;;;;;;;;61.00;48.50;;;;;30.55;25.51;99776.84;5056631;28;46275;-81
2022/03/30 05:03:40;;;;;;;;;64.50;51.00;;;;;30.26;25.27;99714.38;5056925;28;45348;-81
2022/03/30 05:06:05;;;;;;;;;65.00;51.25;;;;;29.83;25.71;99622.94;5057143;28;45730;-81
2022/03/30 05:08:31;;;;;;;;;59.00;49.00;;;;;30.81;25.26;99772.00;5056741;28;45628;-81
2022/03/30 05:10:56;;;;;;;;;67.00;51.00;;;;;29.84;25.74;99596.50;5056181;28;45359;-81
2022/03/30 05:13:21;;;;;;;;;64.75;52.00;;;;;30.60;25.37;99739.03;5056280;28;45554;-81
2022/03/30 05:15:47;;;;;;;;;62.75;50.75;;;;;30.27;25.75;99724.34;5057175;28;45454;-81
2022/03/30 05:18:12;;;;;;;;;60.50;47.75;;;;;29.53;25.84;99591.56;5056645;28;45635;-82
2022/03/30 05:20:41;;;;;;;;;62.75;49.00;;;;;30.88;25.25;99766.91;5056533;28;45413;-81
2022/03/30 05:23:07;;;;;;;;;66.25;51.75;;;;;30.88;25.08;99745.00;5056604;28;45499;-82
2022/03/30 05:25:33;;;;;;;;;66.75;51.75;;;;;30.61;25.52;99716.16;5056512;28;45668;-81
2022/03/30 05:27:58;;;;;;;;;62.50;50.00;;;;;29.85;25.81;99615.50;5056886;28;45456;-82
2022/03/30 05:30:23;;;;;;;;;65.00;51.50;;;;;29.72;25.79;99587.38;5056172;28;46399;-82
2022/03/30 05:32:49;;;;;;;;;63.75;49.50;;;;;30.90;25.36;99776.75;5054626;28;45378;-81
2022/03/30 05:35:15;;;;;;;;;63.50;50.25;;;;;30.24;25.32;99675.34;5056673;28;45351;-82
2022/03/30 05:37:40;;;;;;;;;65.00;49.25;;;;;30.49;25.65;99707.06;5056398;28;45536;-82
2022/03/30 05:40:06;;;;;;;;;60.50;49.00;;;;;30.48;25.27;99701.72;5056004;28;46446;-81
2022/03/30 05:42:38;;;;;;;;;62.00;49.75;;;;;30.59;25.13;99734.56;5056397;28;45397;-81
2022/03/30 05:45:04;;;;;;;;;68.75;53.50;;;;;31.03;25.44;99776.66;5055938;28;45385;-82
2022/03/30 05:47:30;;;;;;;;;61.50;49.75;;;;;30.98;25.20;99770.63;5055983;28;45508;-77
2022/03/30 05:49:55;;;;;;;;;64.75;51.50;;;;;30.96;25.14;99778.97;5055811;28;46263;-78
2022/03/30 05:52:21;;;;;;;;;65.50;51.00;;;;;30.92;25.43;99769.25;5055834;28;45405;-78
2022/03/30 05:54:46;;;;;;;;;62.50;50.25;;;;;30.69;24.79;99716.41;5055915;28;45919;-78
2022/03/30 05:57:11;;;;;;;;;64.50;50.75;;;;;31.00;25.38;99770.50;5056159;28;45415;-78
2022/03/30 05:59:40;;;;;;;;;60.50;49.00;;;;;31.15;24.93;99780.22;5055485;28;45427;-78
2022/03/30 06:02:08;;;;;;;;;63.75;51.00;;;;;31.20;25.28;99775.25;5055453;28;45312;-80
2022/03/30 06:04:34;;;;;;;;;61.75;51.25;;;;;31.06;25.23;99776.38;5055544;28;45395;-79
2022/03/30 06:06:59;;;;;;;;;63.25;49.75;;;;;30.94;25.60;99761.81;5055731;28;45688;-80
2022/03/30 06:09:25;;;;;;;;;60.50;49.50;;;;;30.84;25.09;99727.09;5055339;28;46296;-79
2022/03/30 06:11:50;;;;;;;;;65.00;50.75;;;;;30.75;25.52;99735.06;5055592;28;45478;-81
2022/03/30 06:14:16;;;;;;;;;63.25;50.25;;;;;31.12;24.99;99791.44;5055493;28;45576;-79
2022/03/30 06:16:42;;;;;;;;;67.50;53.00;;;;;31.16;24.91;99790.19;5055010;28;45447;-80
2022/03/30 06:19:12;;;;;;;;;66.50;52.25;;;;;31.17;25.03;99791.03;5048418;28;47288;-79
2022/03/30 06:21:38;;;;;;;;;65.00;51.00;;;;;30.99;25.14;99777.84;5054922;28;45534;-79
2022/03/30 06:24:04;;;;;;;;;63.50;50.75;;;;;30.75;25.19;99772.53;5055047;28;45340;-79
2022/03/30 06:26:29;;;;;;;;;59.50;48.00;;;;;30.73;25.51;99797.28;5049832;28;45388;-83
2022/03/30 06:28:56;;;;;;;;;63.25;50.75;;;;;30.71;25.37;99799.28;5071066;28;46425;-86
2022/03/30 06:31:21;;;;;;;;;65.75;50.75;;;;;30.25;25.46;99737.25;5069421;27;45385;-81
2022/03/30 06:33:47;;;;;;;;;65.00;51.25;;;;;30.47;25.46;99755.59;5060464;27;45467;-83
2022/03/30 06:36:14;;;;;;;;;61.75;48.25;;;;;30.53;25.45;99770.66;5064431;28;45515;-86
2022/03/30 06:38:42;;;;;;;;;59.00;48.75;;;;;30.77;25.16;99792.44;5075041;27;46378;-76
2022/03/30 06:41:08;;;;;;;;;64.75;51.00;;;;;30.78;25.39;99791.44;5059022;27;45516;-85
2022/03/30 06:43:34;;;;;;;;;61.00;49.25;;;;;30.89;25.37;99796.91;5046811;28;45434;-79
2022/03/30 06:46:00;;;;;;;;;62.75;49.00;;;;;30.64;24.98;99762.44;5043908;28;45479;-79
2022/03/30 06:48:25;;;;;;;;;67.00;51.75;;;;;30.57;25.46;99752.97;5039562;28;47301;-80
2022/03/30 06:50:52;;;;;;;;;60.50;49.00;;;;;30.84;25.06;99803.75;5047760;28;45460;-79
2022/03/30 06:53:17;;;;;;;;;67.75;53.25;;;;;30.85;25.51;99794.56;5044699;28;45595;-79
2022/03/30 06:55:42;;;;;;;;;65.00;52.00;;;;;30.95;25.02;99796.41;5036544;28;45958;-79
2022/03/30 06:58:08;;;;;;;;;64.00;51.00;;;;;30.68;25.47;99750.25;5051877;28;46327;-79
2022/03/30 07:00:33;;;;;;;;;60.25;48.25;;;;;30.92;25.21;99799.41;5055833;28;46168;-79
2022/03/30 07:02:59;;;;;;;;;62.00;50.00;;;;;31.00;25.25;99804.25;5055262;28;45758;-79
2022/03/30 07:05:24;;;;;;;;;66.25;52.00;;;;;31.00;25.63;99811.59;5056814;28;45508;-79
2022/03/30 07:10:35;;;;;;;;;64.00;51.50;;;;;30.73;25.13;99775.41;5056108;28;45442;-79
2022/03/30 07:13:03;;;;;;;;;67.50;53.75;;;;;31.02;25.46;99799.53;5057802;28;45702;-79
2022/03/30 07:15:30;;;;;;;;;64.75;49.50;;;;;31.04;24.96;99802.16;5065053;28;45444;-79
2022/03/30 07:17:57;;;;;;;;;66.50;52.75;;;;;30.94;25.48;99799.25;5058819;27;45661;-79
2022/03/30 07:20:25;;;;;;;;;65.00;52.00;;;;;30.90;25.26;99797.78;5063377;28;45408;-79
2022/03/30 07:22:51;;;;;;;;;64.25;50.50;;;;;30.96;24.98;99805.50;5058551;28;45490;-79
2022/03/30 07:25:19;;;;;;;;;61.75;50.50;;;;;30.90;25.67;99801.41;5057361;28;45361;-78
2022/03/30 07:27:47;;;;;;;;;68.75;53.00;;;;;30.78;25.23;99792.28;5057309;28;45451;-79
2022/03/30 07:30:14;;;;;;;;;67.00;51.50;;;;;30.99;25.36;99805.25;5060352;27;45439;-79
2022/03/30 07:32:43;;;;;;;;;63.75;52.50;;;;;30.84;25.32;99781.84;5057584;28;45402;-79
2022/03/30 07:35:10;;;;;;;;;67.50;54.50;;;;;30.61;25.51;99729.84;5055200;28;45479;-79
2022/03/30 07:37:37;;;;;;;;;67.00;53.50;;;;;31.14;25.10;99797.69;5057187;28;45530;-78
2022/03/30 07:40:04;;;;;;;;;66.25;51.50;;;;;31.06;25.70;99794.69;5058750;28;45540;-79
2022/03/30 07:42:30;;;;;;;;;75.25;60.50;;;;;31.00;25.71;99784.19;5053005;28;45506;-79
2022/03/30 07:44:56;;;;;;;;;72.00;56.50;;;;;31.03;25.87;99794.97;5057194;28;45511;-79
2022/03/30 07:47:21;;;;;;;;;71.50;54.75;;;;;31.01;25.55;99775.00;5064918;28;46487;-79
2022/03/30 07:49:47;;;;;;;;;68.50;54.00;;;;;30.84;25.51;99754.47;5056494;28;45345;-79
2022/03/30 07:52:13;;;;;;;;;69.75;53.75;;;;;30.99;25.35;99791.56;5057458;28;46006;-79
2022/03/30 07:54:38;;;;;;;;;68.25;53.00;;;;;30.99;25.70;99790.69;5055266;28;45646;-79
2022/03/30 07:57:04;;;;;;;;;66.75;53.75;;;;;31.00;25.24;99792.41;5056493;28;45561;-79
2022/03/30 07:59:29;;;;;;;;;68.25;53.75;;;;;30.89;25.49;99785.97;5057314;28;45320;-79
2022/03/30 08:01:58;;;;;;;;;70.25;54.00;;;;;30.86;25.82;99771.63;5056900;28;45554;-79
2022/03/30 08:04:23;;;;;;;;;67.00;53.50;;;;;30.88;25.22;99769.66;5060100;28;45461;-79
2022/03/30 08:06:48;;;;;;;;;68.50;54.00;;;;;30.95;25.12;99774.47;5054274;28;49319;-79
2022/03/30 08:09:14;;;;;;;;;65.75;52.50;;;;;31.11;25.07;99800.66;5061631;28;45598;-79
2022/03/30 08:11:39;;;;;;;;;74.00;57.50;;;;;31.14;25.03;99789.47;5056880;27;45348;-79
2022/03/30 08:14:04;;;;;;;;;67.00;53.50;;;;;31.10;24.99;99772.41;5056992;28;45407;-80
2022/03/30 08:16:32;;;;;;;;;67.50;53.25;;;;;30.94;25.21;99731.69;5057161;28;45441;-82
2022/03/30 08:18:58;;;;;;;;;65.00;53.25;;;;;30.91;24.99;99750.22;5066113;28;45324;-80
2022/03/30 08:24:08;;;;;;;;;69.75;56.00;;;;;30.93;24.98;99779.22;5058685;28;45258;-80
2022/03/30 08:26:34;;;;;;;;;67.25;52.50;;;;;30.99;25.49;99797.03;5059411;28;46096;-80
2022/03/30 08:28:59;;;;;;;;;71.50;56.50;;;;;30.95;25.01;99790.06;5062903;28;45422;-81
2022/03/30 08:31:26;;;;;;;;;70.00;55.50;;;;;30.82;25.05;99778.38;5063574;28;45453;-80
2022/03/30 08:33:52;;;;;;;;;68.75;53.75;;;;;31.07;25.43;99789.09;5054148;28;45326;-81
2022/03/30 08:36:17;;;;;;;;;65.75;51.25;;;;;31.06;24.83;99794.69;5056756;28;46307;-81
2022/03/30 08:38:43;;;;;;;;;64.75;49.75;;;;;31.05;25.16;99796.53;5056677;28;45893;-81
2022/03/30 08:41:09;;;;;;;;;66.00;51.25;;;;;31.05;25.21;99790.22;5056938;28;45477;-80
2022/03/30 08:43:35;;;;;;;;;69.25;53.25;;;;;31.00;25.03;99781.44;5049863;28;45430;-80
2022/03/30 08:46:02;;;;;;;;;73.25;56.00;;;;;30.91;25.38;99777.59;5061049;28;45395;-79
2022/03/30 08:48:28;;;;;;;;;65.25;52.00;;;;;31.17;25.29;99788.31;5055989;28;45562;-80
2022/03/30 08:50:54;;;;;;;;;74.75;58.00;;;;;31.05;25.27;99774.63;5058510;28;46402;-80
2022/03/30 08:53:19;;;;;;;;;74.50;61.00;;;;;31.19;25.41;99794.56;5056609;27;45360;-80
2022/03/30 08:55:45;;;;;;;;;79.00;63.75;;;;;31.09;25.10;99789.81;5051153;28;45698;-79
2022/03/30 08:58:12;;;;;;;;;74.75;59.50;;;;;30.67;25.07;99710.16;5055839;28;45250;-80
2022/03/30 09:00:37;;;;;;;;;69.50;53.00;;;;;31.30;24.77;99803.59;5055320;28;45495;-80
2022/03/30 09:03:03;;;;;;;;;65.75;52.50;;;;;31.20;24.88;99799.03;5055350;28;45602;-80
2022/03/30 09:05:37;;;;;;;;;67.75;53.50;;;;;31.26;25.38;99793.03;5045784;28;45267;-80
2022/03/30 09:08:24;;;;;;;;;70.75;54.50;;;;;31.03;25.06;99792.22;5053044;28;45476;-79
2022/03/30 09:10:52;;;;;;;;;70.75;54.00;;;;;30.87;25.49;99790.69;5055736;28;45516;-80
2022/03/30 09:13:17;;;;;;;;;65.50;52.50;;;;;30.76;25.68;99788.84;5056529;28;45381;-80
2022/03/30 09:15:44;;;;;;;;;67.25;51.75;;;;;30.53;25.79;99767.91;5056546;28;45973;-80
2022/03/30 09:18:10;;;;;;;;;70.25;54.00;;;;;30.67;26.11;99803.25;5055138;28;45437;-80
2022/03/30 09:20:39;;;;;;;;;67.00;53.50;;;;;30.46;25.64;99742.91;5054962;28;45538;-80
2022/03/30 09:23:06;;;;;;;;;72.00;56.00;;;;;30.83;25.54;99800.16;5055344;28;45494;-80
2022/03/30 09:25:34;;;;;;;;;67.75;52.50;;;;;30.83;25.66;99800.16;5048683;28;45352;-80
2022/03/30 09:28:01;;;;;;;;;59.50;48.00;;;;;30.56;26.63;99795.03;5051902;28;45455;-80
2022/03/30 09:30:28;;;;;;;;;67.75;52.25;;;;;30.52;26.64;99793.53;5048698;28;45436;-80
2022/03/30 09:32:56;;;;;;;;;70.75;54.50;;;;;30.41;26.29;99767.88;5050813;28;45479;-80
2022/03/30 09:35:31;;;;;;;;;71.00;54.25;;;;;30.54;26.23;99786.94;5055615;28;45717;-80
2022/03/30 09:38:09;;;;;;;;;67.50;53.75;;;;;30.32;26.32;99795.09;5055444;28;45198;-80
2022/03/30 09:40:37;;;;;;;;;69.00;53.00;;;;;30.19;26.61;99787.00;5055877;28;45520;-80
2022/03/30 09:43:30;;;;;;;;;70.00;54.00;;;;;30.23;26.46;99780.28;5059546;28;45460;-80
2022/03/30 09:46:11;;;;;;;;;65.75;53.75;;;;;30.37;26.48;99784.66;5066042;28;46523;-81
2022/03/30 09:48:49;;;;;;;;;73.00;53.50;;;;;30.40;26.17;99779.81;5076302;28;45337;-81
2022/03/30 09:51:18;;;;;;;;;67.75;53.25;;;;;30.24;26.21;99750.06;5075960;28;45388;-82
2022/03/30 09:53:44;;;;;;;;;67.50;53.50;;;;;30.62;26.02;99783.59;5076355;27;45506;-82
2022/03/30 09:56:20;;;;;;;;;71.00;56.25;;;;;30.69;26.43;99790.31;5064278;27;45456;-81
2022/03/30 09:58:47;;;;;;;;;69.25;53.00;;;;;30.69;26.20;99776.63;5056330;28;45919;-81
2022/03/30 10:01:23;;;;;;;;;68.50;53.75;;;;;30.89;25.92;99787.84;5056116;28;45322;-79
2022/03/30 10:03:56;;;;;;;;;72.25;55.25;;;;;30.93;25.80;99794.81;5051310;27;45428;-80
2022/03/30 10:06:26;;;;;;;;;70.25;53.75;;;;;30.45;25.78;99754.84;5035315;28;45528;-79
2022/03/30 10:08:53;;;;;;;;;68.25;52.75;;;;;30.67;25.55;99788.69;5035350;28;45471;-80
2022/03/30 10:11:21;;;;;;;;;62.50;50.25;;;;;30.60;25.97;99764.56;5065851;28;45469;-79
2022/03/30 10:13:50;;;;;;;;;68.75;53.75;;;;;30.82;26.02;99781.97;5056357;27;45400;-79
2022/03/30 10:16:18;;;;;;;;;69.25;53.75;;;;;30.71;26.60;99755.47;5055142;28;45526;-79
2022/03/30 10:18:44;;;;;;;;;65.75;50.75;;;;;30.85;26.63;99762.56;5088090;27;45453;-79
2022/03/30 10:21:48;;;;;;;;;73.25;55.00;;;;;30.84;25.54;99740.78;5065880;28;45478;-79
2022/03/30 10:24:39;;;;;;;;;65.00;50.75;;;;;31.18;25.58;99782.72;5046883;28;45703;-78
2022/03/30 10:27:23;;;;;;;;;67.00;51.75;;;;;31.14;25.23;99775.75;5053548;28;46790;-86
2022/03/30 10:29:53;;;;;;;;;62.25;50.50;;;;;31.06;25.67;99770.91;5058171;28;45250;-80
2022/03/30 10:32:21;;;;;;;;;66.50;53.00;;;;;30.60;25.57;99698.88;5051402;28;45689;-79
2022/03/30 10:35:02;;;;;;;;;64.25;50.00;;;;;31.05;25.82;99768.28;5052507;28;45516;-79
2022/03/30 10:37:34;;;;;;;;;62.75;49.50;;;;;31.15;25.92;99768.41;5052356;28;47775;-81
2022/03/30 10:40:30;;;;;;;;;63.00;50.00;;;;;31.25;25.37;99766.63;5053921;28;45522;-84
2022/03/30 10:42:58;;;;;;;;;64.75;51.00;;;;;31.44;25.41;99771.44;5054775;28;45388;-78
2022/03/30 10:45:40;;;;;;;;;62.00;48.25;;;;;31.69;25.98;99763.88;5054798;28;45529;-79
2022/03/30 10:48:34;;;;;;;;;65.00;51.00;;;;;31.64;24.94;99775.25;5037199;28;45446;-79
2022/03/30 10:51:15;;;;;;;;;64.75;50.50;;;;;31.58;25.15;99764.84;5057390;28;45385;-79
2022/03/30 10:53:46;;;;;;;;;67.25;52.25;;;;;31.47;24.93;99733.66;5053662;28;45495;-79
2022/03/30 10:56:24;;;;;;;;;70.25;53.25;;;;;31.70;25.43;99752.81;5042740;28;45766;-79
2022/03/30 10:58:52;;;;;;;;;60.50;49.50;;;;;31.46;25.10;99750.25;5033355;28;46036;-79
2022/03/30 11:01:24;;;;;;;;;71.00;54.50;;;;;31.48;24.56;99754.59;5054081;28;45514;-78
2022/03/30 11:04:18;;;;;;;;;64.75;51.75;;;;;31.50;24.96;99748.13;5054688;28;45408;-79
2022/03/30 11:06:46;;;;;;;;;67.50;52.50;;;;;31.56;25.00;99744.84;5054790;28;45570;-80
2022/03/30 11:09:25;;;;;;;;;70.25;53.50;;;;;31.79;25.82;99740.19;5053353;28;47358;-79
2022/03/30 11:12:12;;;;;;;;;69.50;52.50;;;;;31.97;25.20;99733.09;5053348;28;45494;-78
2022/03/30 11:14:40;;;;;;;;;75.00;63.00;;;;;32.12;25.62;99730.88;5034371;28;45436;-78
2022/03/30 11:17:09;;;;;;;;;76.00;58.75;;;;;32.27;25.50;99733.31;5034401;28;45400;-79
2022/03/30 11:19:47;;;;;;;;;67.00;52.00;;;;;32.22;24.34;99721.84;5049700;28;46817;-78
2022/03/30 11:22:14;;;;;;;;;68.00;53.50;;;;;32.12;25.25;99735.47;5034278;28;45353;-78
2022/03/30 11:24:42;;;;;;;;;66.50;52.75;;;;;31.92;24.60;99688.72;5034551;28;45444;-78
2022/03/30 11:27:07;;;;;;;;;68.50;53.50;;;;;32.32;24.88;99725.50;5036110;28;45314;-78
2022/03/30 11:29:42;;;;;;;;;68.75;52.50;;;;;32.22;24.32;99730.09;5053743;28;46187;-79